sensor_id;sensor_type;location;lat;lon;timestamp;temperature;humidity
16929;DHT22;8581;47.334;11.190;2023-07-09T00:00:39;16.20;99.90
16929;DHT22;8581;47.334;11.190;2023-07-09T00:03:11;16.20;99.90
16929;DHT22;8581;47.334;11.190;2023-07-09T00:05:42;16.20;99.90
16929;DHT22;8581;47.334;11.190;2023-07-09T00:08:23;16.10;99.90
16929;DHT22;8581;47.334;11.190;2023-07-09T00:10:50;16.00;99.90
16929;DHT22;8581;47.334;11.190;2023-07-09T00:13:23;16.10;99.90
16929;DHT22;8581;47.334;11.190;2023-07-09T00:15:55;16.10;99.90
16929;DHT22;8581;47.334;11.190;2023-07-09T00:18:26;16.40;99.90
16929;DHT22;8581;47.334;11.190;2023-07-09T00:20:57;16.40;99.90
16929;DHT22;8581;47.334;11.190;2023-07-09T00:23:29;16.60;99.90
16929;DHT22;8581;47.334;11.190;2023-07-09T00:26:01;16.60;99.90
16929;DHT22;8581;47.334;11.190;2023-07-09T00:28:32;16.60;99.90
16929;DHT22;8581;47.334;11.190;2023-07-09T00:31:04;16.40;99.90
16929;DHT22;8581;47.334;11.190;2023-07-09T00:33:35;16.40;99.90
16929;DHT22;8581;47.334;11.190;2023-07-09T00:36:15;16.30;99.90
16929;DHT22;8581;47.334;11.190;2023-07-09T00:38:46;16.20;99.90
16929;DHT22;8581;47.334;11.190;2023-07-09T00:41:18;16.10;99.90
16929;DHT22;8581;47.334;11.190;2023-07-09T00:43:50;16.20;99.90
16929;DHT22;8581;47.334;11.190;2023-07-09T00:47:12;16.10;99.90
16929;DHT22;8581;47.334;11.190;2023-07-09T00:49:28;16.00;99.90
16929;DHT22;8581;47.334;11.190;2023-07-09T00:52:01;15.90;99.90
16929;DHT22;8581;47.334;11.190;2023-07-09T00:54:35;16.00;99.90
16929;DHT22;8581;47.334;11.190;2023-07-09T00:57:08;15.80;99.90
16929;DHT22;8581;47.334;11.190;2023-07-09T00:59:38;15.70;99.90
16929;DHT22;8581;47.334;11.190;2023-07-09T01:02:10;15.50;99.90
16929;DHT22;8581;47.334;11.190;2023-07-09T01:04:41;15.50;99.90
16929;DHT22;8581;47.334;11.190;2023-07-09T01:07:13;15.60;99.90
16929;DHT22;8581;47.334;11.190;2023-07-09T01:09:45;15.60;99.90
16929;DHT22;8581;47.334;11.190;2023-07-09T01:12:16;15.60;99.90
16929;DHT22;8581;47.334;11.190;2023-07-09T01:14:48;15.40;99.90
16929;DHT22;8581;47.334;11.190;2023-07-09T01:17:20;15.40;99.90
16929;DHT22;8581;47.334;11.190;2023-07-09T01:19:51;15.30;99.90
16929;DHT22;8581;47.334;11.190;2023-07-09T01:22:23;15.20;99.90
16929;DHT22;8581;47.334;11.190;2023-07-09T01:24:59;15.40;99.90
16929;DHT22;8581;47.334;11.190;2023-07-09T01:27:33;15.60;99.90
16929;DHT22;8581;47.334;11.190;2023-07-09T01:30:05;15.30;99.90
16929;DHT22;8581;47.334;11.190;2023-07-09T01:32:36;15.30;99.90
16929;DHT22;8581;47.334;11.190;2023-07-09T01:35:07;15.20;99.90
16929;DHT22;8581;47.334;11.190;2023-07-09T01:37:39;15.00;99.90
16929;DHT22;8581;47.334;11.190;2023-07-09T01:40:12;14.90;99.90
16929;DHT22;8581;47.334;11.190;2023-07-09T01:42:43;15.00;99.90
16929;DHT22;8581;47.334;11.190;2023-07-09T01:45:15;14.90;99.90
16929;DHT22;8581;47.334;11.190;2023-07-09T01:47:46;14.80;99.90
16929;DHT22;8581;47.334;11.190;2023-07-09T01:50:18;14.80;99.90
16929;DHT22;8581;47.334;11.190;2023-07-09T01:52:50;14.80;99.90
16929;DHT22;8581;47.334;11.190;2023-07-09T01:55:21;14.80;99.90
16929;DHT22;8581;47.334;11.190;2023-07-09T01:57:53;14.90;99.90
16929;DHT22;8581;47.334;11.190;2023-07-09T02:00:24;14.90;99.90
16929;DHT22;8581;47.334;11.190;2023-07-09T02:02:56;14.60;99.90
16929;DHT22;8581;47.334;11.190;2023-07-09T02:05:29;14.50;99.90
16929;DHT22;8581;47.334;11.190;2023-07-09T02:07:59;14.40;99.90
16929;DHT22;8581;47.334;11.190;2023-07-09T02:10:31;14.40;99.90
16929;DHT22;8581;47.334;11.190;2023-07-09T02:13:02;14.30;99.90
16929;DHT22;8581;47.334;11.190;2023-07-09T02:15:34;14.20;99.90
16929;DHT22;8581;47.334;11.190;2023-07-09T02:18:06;14.10;99.90
16929;DHT22;8581;47.334;11.190;2023-07-09T02:20:37;14.10;99.90
16929;DHT22;8581;47.334;11.190;2023-07-09T02:23:09;14.10;99.90
16929;DHT22;8581;47.334;11.190;2023-07-09T02:25:40;14.30;99.90
16929;DHT22;8581;47.334;11.190;2023-07-09T02:28:12;14.20;99.90
16929;DHT22;8581;47.334;11.190;2023-07-09T02:30:44;14.20;99.90
16929;DHT22;8581;47.334;11.190;2023-07-09T02:33:15;14.40;99.90
16929;DHT22;8581;47.334;11.190;2023-07-09T02:35:47;14.50;99.90
16929;DHT22;8581;47.334;11.190;2023-07-09T02:38:18;14.30;99.90
16929;DHT22;8581;47.334;11.190;2023-07-09T02:40:50;14.10;99.90
16929;DHT22;8581;47.334;11.190;2023-07-09T02:43:22;14.00;99.90
16929;DHT22;8581;47.334;11.190;2023-07-09T02:45:53;13.90;99.90
16929;DHT22;8581;47.334;11.190;2023-07-09T02:48:25;13.80;99.90
16929;DHT22;8581;47.334;11.190;2023-07-09T02:50:56;13.80;99.90
16929;DHT22;8581;47.334;11.190;2023-07-09T02:53:28;13.80;99.90
16929;DHT22;8581;47.334;11.190;2023-07-09T02:55:59;13.90;99.90
16929;DHT22;8581;47.334;11.190;2023-07-09T02:58:31;14.10;99.90
16929;DHT22;8581;47.334;11.190;2023-07-09T03:01:03;14.30;99.90
16929;DHT22;8581;47.334;11.190;2023-07-09T03:03:34;14.20;99.90
16929;DHT22;8581;47.334;11.190;2023-07-09T03:06:06;14.10;99.90
16929;DHT22;8581;47.334;11.190;2023-07-09T03:08:38;14.10;99.90
16929;DHT22;8581;47.334;11.190;2023-07-09T03:11:10;14.00;99.90
16929;DHT22;8581;47.334;11.190;2023-07-09T03:13:41;13.80;99.90
16929;DHT22;8581;47.334;11.190;2023-07-09T03:16:13;13.70;99.90
16929;DHT22;8581;47.334;11.190;2023-07-09T03:18:44;13.60;99.90
16929;DHT22;8581;47.334;11.190;2023-07-09T03:21:16;13.70;99.90
16929;DHT22;8581;47.334;11.190;2023-07-09T03:23:47;13.60;99.90
16929;DHT22;8581;47.334;11.190;2023-07-09T03:26:19;13.60;99.90
16929;DHT22;8581;47.334;11.190;2023-07-09T03:28:51;13.60;99.90
16929;DHT22;8581;47.334;11.190;2023-07-09T03:31:22;13.60;99.90
16929;DHT22;8581;47.334;11.190;2023-07-09T03:33:54;13.50;99.90
16929;DHT22;8581;47.334;11.190;2023-07-09T03:36:25;13.50;99.90
16929;DHT22;8581;47.334;11.190;2023-07-09T03:38:57;13.40;99.90
16929;DHT22;8581;47.334;11.190;2023-07-09T03:41:28;13.40;99.90
16929;DHT22;8581;47.334;11.190;2023-07-09T03:44:00;13.40;99.90
16929;DHT22;8581;47.334;11.190;2023-07-09T03:46:31;13.50;99.90
16929;DHT22;8581;47.334;11.190;2023-07-09T03:49:03;13.50;99.90
16929;DHT22;8581;47.334;11.190;2023-07-09T03:51:35;13.40;99.90
16929;DHT22;8581;47.334;11.190;2023-07-09T03:54:06;13.40;99.90
16929;DHT22;8581;47.334;11.190;2023-07-09T03:56:38;13.30;99.90
16929;DHT22;8581;47.334;11.190;2023-07-09T03:59:09;13.40;99.90
16929;DHT22;8581;47.334;11.190;2023-07-09T04:01:41;13.40;99.90
16929;DHT22;8581;47.334;11.190;2023-07-09T04:04:15;13.60;99.90
16929;DHT22;8581;47.334;11.190;2023-07-09T04:06:46;13.60;99.90
16929;DHT22;8581;47.334;11.190;2023-07-09T04:09:18;13.60;99.90
16929;DHT22;8581;47.334;11.190;2023-07-09T04:11:50;13.60;99.90
16929;DHT22;8581;47.334;11.190;2023-07-09T04:14:22;13.50;99.90
16929;DHT22;8581;47.334;11.190;2023-07-09T04:16:54;13.50;99.90
16929;DHT22;8581;47.334;11.190;2023-07-09T04:19:25;13.60;99.90
16929;DHT22;8581;47.334;11.190;2023-07-09T04:21:57;13.50;99.90
16929;DHT22;8581;47.334;11.190;2023-07-09T04:24:29;13.60;99.90
16929;DHT22;8581;47.334;11.190;2023-07-09T04:27:00;13.80;99.90
16929;DHT22;8581;47.334;11.190;2023-07-09T04:29:32;14.00;99.90
16929;DHT22;8581;47.334;11.190;2023-07-09T04:32:06;13.80;99.90
16929;DHT22;8581;47.334;11.190;2023-07-09T04:34:38;13.60;99.90
16929;DHT22;8581;47.334;11.190;2023-07-09T04:37:10;13.70;99.90
16929;DHT22;8581;47.334;11.190;2023-07-09T04:39:41;13.50;99.90
16929;DHT22;8581;47.334;11.190;2023-07-09T04:42:14;13.60;99.90
16929;DHT22;8581;47.334;11.190;2023-07-09T04:44:45;13.80;99.90
16929;DHT22;8581;47.334;11.190;2023-07-09T04:47:16;13.90;99.90
16929;DHT22;8581;47.334;11.190;2023-07-09T04:49:48;13.90;99.90
16929;DHT22;8581;47.334;11.190;2023-07-09T04:52:19;13.80;99.90
16929;DHT22;8581;47.334;11.190;2023-07-09T04:54:51;13.80;99.90
16929;DHT22;8581;47.334;11.190;2023-07-09T04:57:22;14.00;99.90
16929;DHT22;8581;47.334;11.190;2023-07-09T04:59:54;14.20;99.90
16929;DHT22;8581;47.334;11.190;2023-07-09T05:02:26;14.40;99.90
16929;DHT22;8581;47.334;11.190;2023-07-09T05:04:57;14.80;99.90
16929;DHT22;8581;47.334;11.190;2023-07-09T05:07:29;15.10;99.90
16929;DHT22;8581;47.334;11.190;2023-07-09T05:10:00;15.10;99.90
16929;DHT22;8581;47.334;11.190;2023-07-09T05:12:32;15.30;99.90
16929;DHT22;8581;47.334;11.190;2023-07-09T05:15:04;15.50;99.90
16929;DHT22;8581;47.334;11.190;2023-07-09T05:17:36;15.60;99.90
16929;DHT22;8581;47.334;11.190;2023-07-09T05:20:09;15.70;99.90
16929;DHT22;8581;47.334;11.190;2023-07-09T05:22:40;15.90;99.90
16929;DHT22;8581;47.334;11.190;2023-07-09T05:25:12;16.10;99.90
16929;DHT22;8581;47.334;11.190;2023-07-09T05:27:44;16.30;99.90
16929;DHT22;8581;47.334;11.190;2023-07-09T05:30:15;16.40;99.90
16929;DHT22;8581;47.334;11.190;2023-07-09T05:32:47;16.50;99.90
16929;DHT22;8581;47.334;11.190;2023-07-09T05:35:18;16.60;99.90
16929;DHT22;8581;47.334;11.190;2023-07-09T05:37:50;16.70;99.90
16929;DHT22;8581;47.334;11.190;2023-07-09T05:40:22;16.90;99.90
16929;DHT22;8581;47.334;11.190;2023-07-09T05:42:53;17.00;99.90
16929;DHT22;8581;47.334;11.190;2023-07-09T05:45:25;17.30;99.90
16929;DHT22;8581;47.334;11.190;2023-07-09T05:47:58;17.40;99.90
16929;DHT22;8581;47.334;11.190;2023-07-09T05:50:29;17.60;99.90
16929;DHT22;8581;47.334;11.190;2023-07-09T05:53:00;17.70;99.90
16929;DHT22;8581;47.334;11.190;2023-07-09T05:55:32;17.80;99.90
16929;DHT22;8581;47.334;11.190;2023-07-09T05:58:04;17.90;99.90
16929;DHT22;8581;47.334;11.190;2023-07-09T06:00:35;17.90;99.90
16929;DHT22;8581;47.334;11.190;2023-07-09T06:03:12;18.10;99.90
16929;DHT22;8581;47.334;11.190;2023-07-09T06:05:44;18.20;99.90
16929;DHT22;8581;47.334;11.190;2023-07-09T06:08:16;18.30;99.90
16929;DHT22;8581;47.334;11.190;2023-07-09T06:10:56;18.40;99.90
16929;DHT22;8581;47.334;11.190;2023-07-09T06:13:26;18.40;99.90
16929;DHT22;8581;47.334;11.190;2023-07-09T06:15:58;18.70;99.90
16929;DHT22;8581;47.334;11.190;2023-07-09T06:18:30;18.70;99.90
16929;DHT22;8581;47.334;11.190;2023-07-09T06:21:02;18.70;99.90
16929;DHT22;8581;47.334;11.190;2023-07-09T06:23:33;19.00;99.90
16929;DHT22;8581;47.334;11.190;2023-07-09T06:26:05;19.00;99.90
16929;DHT22;8581;47.334;11.190;2023-07-09T06:28:37;19.10;99.90
16929;DHT22;8581;47.334;11.190;2023-07-09T06:31:08;19.20;99.90
16929;DHT22;8581;47.334;11.190;2023-07-09T06:33:40;19.30;99.90
16929;DHT22;8581;47.334;11.190;2023-07-09T06:36:11;19.30;99.90
16929;DHT22;8581;47.334;11.190;2023-07-09T06:38:43;19.60;99.90
16929;DHT22;8581;47.334;11.190;2023-07-09T06:41:15;19.70;99.90
16929;DHT22;8581;47.334;11.190;2023-07-09T06:43:46;19.80;99.90
16929;DHT22;8581;47.334;11.190;2023-07-09T06:46:18;19.90;99.90
16929;DHT22;8581;47.334;11.190;2023-07-09T06:48:49;20.00;99.90
16929;DHT22;8581;47.334;11.190;2023-07-09T06:51:21;19.90;99.90
16929;DHT22;8581;47.334;11.190;2023-07-09T06:53:53;20.10;99.90
16929;DHT22;8581;47.334;11.190;2023-07-09T06:56:24;20.00;99.90
16929;DHT22;8581;47.334;11.190;2023-07-09T06:58:56;20.10;99.90
16929;DHT22;8581;47.334;11.190;2023-07-09T07:01:27;20.10;99.90
16929;DHT22;8581;47.334;11.190;2023-07-09T07:03:59;20.20;99.90
16929;DHT22;8581;47.334;11.190;2023-07-09T07:06:31;20.40;99.90
16929;DHT22;8581;47.334;11.190;2023-07-09T07:09:02;20.30;99.90
16929;DHT22;8581;47.334;11.190;2023-07-09T07:11:34;20.30;99.90
16929;DHT22;8581;47.334;11.190;2023-07-09T07:14:05;20.40;99.90
16929;DHT22;8581;47.334;11.190;2023-07-09T07:16:37;20.50;99.90
16929;DHT22;8581;47.334;11.190;2023-07-09T07:19:09;20.50;99.90
16929;DHT22;8581;47.334;11.190;2023-07-09T07:21:40;20.50;99.90
16929;DHT22;8581;47.334;11.190;2023-07-09T07:24:12;20.70;99.90
16929;DHT22;8581;47.334;11.190;2023-07-09T07:26:43;20.80;99.90
16929;DHT22;8581;47.334;11.190;2023-07-09T07:29:15;20.90;99.90
16929;DHT22;8581;47.334;11.190;2023-07-09T07:31:47;20.80;99.90
16929;DHT22;8581;47.334;11.190;2023-07-09T07:34:18;20.90;99.90
16929;DHT22;8581;47.334;11.190;2023-07-09T07:36:50;21.00;99.90
16929;DHT22;8581;47.334;11.190;2023-07-09T07:39:21;21.10;99.90
16929;DHT22;8581;47.334;11.190;2023-07-09T07:41:55;21.20;99.90
16929;DHT22;8581;47.334;11.190;2023-07-09T07:44:28;21.20;99.90
16929;DHT22;8581;47.334;11.190;2023-07-09T07:47:00;21.30;99.90
16929;DHT22;8581;47.334;11.190;2023-07-09T07:49:34;21.40;99.90
16929;DHT22;8581;47.334;11.190;2023-07-09T07:52:06;21.40;99.90
16929;DHT22;8581;47.334;11.190;2023-07-09T07:54:38;21.50;99.90
16929;DHT22;8581;47.334;11.190;2023-07-09T07:57:10;21.60;99.90
16929;DHT22;8581;47.334;11.190;2023-07-09T07:59:42;21.70;99.90
16929;DHT22;8581;47.334;11.190;2023-07-09T08:02:14;21.80;99.90
16929;DHT22;8581;47.334;11.190;2023-07-09T08:04:46;22.00;99.90
16929;DHT22;8581;47.334;11.190;2023-07-09T08:07:18;22.00;99.90
16929;DHT22;8581;47.334;11.190;2023-07-09T08:09:49;22.00;99.90
16929;DHT22;8581;47.334;11.190;2023-07-09T08:12:21;21.90;99.90
16929;DHT22;8581;47.334;11.190;2023-07-09T08:14:52;21.90;99.90
16929;DHT22;8581;47.334;11.190;2023-07-09T08:17:25;22.10;99.90
16929;DHT22;8581;47.334;11.190;2023-07-09T08:19:57;22.20;99.90
16929;DHT22;8581;47.334;11.190;2023-07-09T08:22:29;22.10;99.90
16929;DHT22;8581;47.334;11.190;2023-07-09T08:25:00;22.00;99.90
16929;DHT22;8581;47.334;11.190;2023-07-09T08:27:32;22.10;99.90
16929;DHT22;8581;47.334;11.190;2023-07-09T08:30:06;22.30;99.90
16929;DHT22;8581;47.334;11.190;2023-07-09T08:32:38;22.40;99.90
16929;DHT22;8581;47.334;11.190;2023-07-09T08:35:10;22.60;99.90
16929;DHT22;8581;47.334;11.190;2023-07-09T08:37:41;22.60;99.90
16929;DHT22;8581;47.334;11.190;2023-07-09T08:40:14;22.60;99.90
16929;DHT22;8581;47.334;11.190;2023-07-09T08:42:46;22.70;99.90
16929;DHT22;8581;47.334;11.190;2023-07-09T08:45:31;22.80;99.90
16929;DHT22;8581;47.334;11.190;2023-07-09T08:48:04;22.90;99.90
16929;DHT22;8581;47.334;11.190;2023-07-09T08:50:37;23.10;99.90
16929;DHT22;8581;47.334;11.190;2023-07-09T08:53:13;23.30;99.90
16929;DHT22;8581;47.334;11.190;2023-07-09T08:55:41;23.40;99.90
16929;DHT22;8581;47.334;11.190;2023-07-09T08:58:17;23.50;99.90
16929;DHT22;8581;47.334;11.190;2023-07-09T09:00:51;23.50;99.90
16929;DHT22;8581;47.334;11.190;2023-07-09T09:03:31;23.60;99.90
16929;DHT22;8581;47.334;11.190;2023-07-09T09:06:01;23.80;99.90
16929;DHT22;8581;47.334;11.190;2023-07-09T09:08:38;23.80;99.90
16929;DHT22;8581;47.334;11.190;2023-07-09T09:11:20;24.00;99.90
16929;DHT22;8581;47.334;11.190;2023-07-09T09:13:52;24.20;99.90
16929;DHT22;8581;47.334;11.190;2023-07-09T09:16:26;24.40;99.90
16929;DHT22;8581;47.334;11.190;2023-07-09T09:18:57;24.50;99.90
16929;DHT22;8581;47.334;11.190;2023-07-09T09:21:34;24.70;99.90
16929;DHT22;8581;47.334;11.190;2023-07-09T09:24:14;24.70;99.90
16929;DHT22;8581;47.334;11.190;2023-07-09T09:26:44;24.80;99.90
16929;DHT22;8581;47.334;11.190;2023-07-09T09:29:16;25.00;99.90
16929;DHT22;8581;47.334;11.190;2023-07-09T09:31:52;25.20;99.90
16929;DHT22;8581;47.334;11.190;2023-07-09T09:34:25;25.30;99.90
16929;DHT22;8581;47.334;11.190;2023-07-09T09:36:57;25.30;99.90
16929;DHT22;8581;47.334;11.190;2023-07-09T09:39:27;25.50;99.90
16929;DHT22;8581;47.334;11.190;2023-07-09T09:41:59;25.70;99.90
16929;DHT22;8581;47.334;11.190;2023-07-09T09:44:30;26.10;99.90
16929;DHT22;8581;47.334;11.190;2023-07-09T09:47:02;26.20;99.90
16929;DHT22;8581;47.334;11.190;2023-07-09T09:49:42;26.40;99.90
16929;DHT22;8581;47.334;11.190;2023-07-09T09:52:15;26.60;99.90
16929;DHT22;8581;47.334;11.190;2023-07-09T09:54:52;26.90;99.90
16929;DHT22;8581;47.334;11.190;2023-07-09T09:57:23;27.00;99.90
16929;DHT22;8581;47.334;11.190;2023-07-09T09:59:55;27.30;99.90
16929;DHT22;8581;47.334;11.190;2023-07-09T10:02:29;27.70;99.90
16929;DHT22;8581;47.334;11.190;2023-07-09T10:05:01;28.40;99.50
16929;DHT22;8581;47.334;11.190;2023-07-09T10:07:38;29.40;94.20
16929;DHT22;8581;47.334;11.190;2023-07-09T10:10:15;29.90;99.90
16929;DHT22;8581;47.334;11.190;2023-07-09T10:13:07;30.80;94.10
16929;DHT22;8581;47.334;11.190;2023-07-09T10:15:42;31.60;93.40
16929;DHT22;8581;47.334;11.190;2023-07-09T10:18:27;32.20;93.60
16929;DHT22;8581;47.334;11.190;2023-07-09T10:23:55;33.00;92.80
16929;DHT22;8581;47.334;11.190;2023-07-09T10:26:25;33.50;91.40
16929;DHT22;8581;47.334;11.190;2023-07-09T10:29:01;33.70;91.00
16929;DHT22;8581;47.334;11.190;2023-07-09T10:31:34;33.50;90.30
16929;DHT22;8581;47.334;11.190;2023-07-09T10:35:16;33.80;90.00
16929;DHT22;8581;47.334;11.190;2023-07-09T10:39:49;35.40;84.30
16929;DHT22;8581;47.334;11.190;2023-07-09T10:42:25;35.80;85.50
16929;DHT22;8581;47.334;11.190;2023-07-09T10:44:59;36.30;85.50
16929;DHT22;8581;47.334;11.190;2023-07-09T10:47:31;36.40;81.10
16929;DHT22;8581;47.334;11.190;2023-07-09T10:50:02;36.60;78.10
16929;DHT22;8581;47.334;11.190;2023-07-09T10:52:34;37.00;76.20
16929;DHT22;8581;47.334;11.190;2023-07-09T10:57:59;38.00;75.50
16929;DHT22;8581;47.334;11.190;2023-07-09T11:00:34;38.50;76.50
16929;DHT22;8581;47.334;11.190;2023-07-09T11:03:18;38.20;77.60
16929;DHT22;8581;47.334;11.190;2023-07-09T11:05:37;38.50;80.00
16929;DHT22;8581;47.334;11.190;2023-07-09T11:08:11;38.40;75.90
16929;DHT22;8581;47.334;11.190;2023-07-09T11:10:44;38.60;77.00
16929;DHT22;8581;47.334;11.190;2023-07-09T11:13:24;38.40;76.10
16929;DHT22;8581;47.334;11.190;2023-07-09T11:15:49;38.60;75.30
16929;DHT22;8581;47.334;11.190;2023-07-09T11:18:23;40.00;70.30
16929;DHT22;8581;47.334;11.190;2023-07-09T11:20:58;40.10;73.40
16929;DHT22;8581;47.334;11.190;2023-07-09T11:23:38;40.50;70.40
16929;DHT22;8581;47.334;11.190;2023-07-09T11:26:02;40.90;70.90
16929;DHT22;8581;47.334;11.190;2023-07-09T11:28:34;41.40;67.70
16929;DHT22;8581;47.334;11.190;2023-07-09T11:31:08;42.30;69.40
16929;DHT22;8581;47.334;11.190;2023-07-09T11:33:45;41.50;64.50
16929;DHT22;8581;47.334;11.190;2023-07-09T11:36:12;41.50;69.30
16929;DHT22;8581;47.334;11.190;2023-07-09T11:38:44;42.00;62.40
16929;DHT22;8581;47.334;11.190;2023-07-09T11:41:25;42.20;57.90
16929;DHT22;8581;47.334;11.190;2023-07-09T11:44:12;42.70;58.00
16929;DHT22;8581;47.334;11.190;2023-07-09T11:46:49;40.60;60.70
16929;DHT22;8581;47.334;11.190;2023-07-09T11:49:16;39.40;61.50
16929;DHT22;8581;47.334;11.190;2023-07-09T11:51:49;40.00;59.30
16929;DHT22;8581;47.334;11.190;2023-07-09T11:54:20;40.80;58.30
16929;DHT22;8581;47.334;11.190;2023-07-09T11:56:55;39.80;59.10
16929;DHT22;8581;47.334;11.190;2023-07-09T11:59:25;40.10;62.50
16929;DHT22;8581;47.334;11.190;2023-07-09T12:01:57;41.10;58.40
16929;DHT22;8581;47.334;11.190;2023-07-09T12:04:31;42.00;62.00
16929;DHT22;8581;47.334;11.190;2023-07-09T12:07:01;41.50;62.90
16929;DHT22;8581;47.334;11.190;2023-07-09T12:09:33;42.30;62.00
16929;DHT22;8581;47.334;11.190;2023-07-09T12:12:15;42.50;61.20
16929;DHT22;8581;47.334;11.190;2023-07-09T12:14:36;43.10;59.70
16929;DHT22;8581;47.334;11.190;2023-07-09T12:17:08;44.20;57.10
16929;DHT22;8581;47.334;11.190;2023-07-09T12:19:40;43.80;56.10
16929;DHT22;8581;47.334;11.190;2023-07-09T12:22:18;43.50;58.00
16929;DHT22;8581;47.334;11.190;2023-07-09T12:24:49;43.60;56.40
16929;DHT22;8581;47.334;11.190;2023-07-09T12:27:21;45.10;57.60
16929;DHT22;8581;47.334;11.190;2023-07-09T12:29:54;44.10;58.30
16929;DHT22;8581;47.334;11.190;2023-07-09T12:32:24;44.40;56.10
16929;DHT22;8581;47.334;11.190;2023-07-09T12:34:56;44.00;54.10
16929;DHT22;8581;47.334;11.190;2023-07-09T12:37:28;42.50;53.70
16929;DHT22;8581;47.334;11.190;2023-07-09T12:39:59;41.50;56.70
16929;DHT22;8581;47.334;11.190;2023-07-09T12:42:32;42.40;58.10
16929;DHT22;8581;47.334;11.190;2023-07-09T12:45:03;44.00;56.70
16929;DHT22;8581;47.334;11.190;2023-07-09T12:47:35;44.00;56.90
16929;DHT22;8581;47.334;11.190;2023-07-09T12:50:48;44.30;55.90
16929;DHT22;8581;47.334;11.190;2023-07-09T12:53:01;44.60;55.70
16929;DHT22;8581;47.334;11.190;2023-07-09T12:55:37;44.60;56.10
16929;DHT22;8581;47.334;11.190;2023-07-09T12:58:07;45.50;55.90
16929;DHT22;8581;47.334;11.190;2023-07-09T13:00:35;45.30;54.90
16929;DHT22;8581;47.334;11.190;2023-07-09T13:03:12;45.00;54.70
16929;DHT22;8581;47.334;11.190;2023-07-09T13:05:38;45.80;55.10
16929;DHT22;8581;47.334;11.190;2023-07-09T13:08:12;43.50;54.00
16929;DHT22;8581;47.334;11.190;2023-07-09T13:10:44;40.70;57.10
16929;DHT22;8581;47.334;11.190;2023-07-09T13:13:15;38.50;58.80
16929;DHT22;8581;47.334;11.190;2023-07-09T13:15:48;39.10;62.00
16929;DHT22;8581;47.334;11.190;2023-07-09T13:18:19;39.50;59.30
16929;DHT22;8581;47.334;11.190;2023-07-09T13:20:51;38.90;60.00
16929;DHT22;8581;47.334;11.190;2023-07-09T13:23:24;38.30;57.70
16929;DHT22;8581;47.334;11.190;2023-07-09T13:25:54;40.30;61.20
16929;DHT22;8581;47.334;11.190;2023-07-09T13:28:27;41.80;57.70
16929;DHT22;8581;47.334;11.190;2023-07-09T13:30:59;43.70;55.30
16929;DHT22;8581;47.334;11.190;2023-07-09T13:33:30;44.50;54.00
16929;DHT22;8581;47.334;11.190;2023-07-09T13:36:02;44.10;53.50
16929;DHT22;8581;47.334;11.190;2023-07-09T13:38:33;43.70;51.90
16929;DHT22;8581;47.334;11.190;2023-07-09T13:41:12;42.30;53.00
16929;DHT22;8581;47.334;11.190;2023-07-09T13:43:43;41.20;57.60
16929;DHT22;8581;47.334;11.190;2023-07-09T13:46:14;37.20;58.40
16929;DHT22;8581;47.334;11.190;2023-07-09T13:48:45;35.30;63.10
16929;DHT22;8581;47.334;11.190;2023-07-09T13:51:19;36.10;62.00
16929;DHT22;8581;47.334;11.190;2023-07-09T13:53:51;37.40;60.90
16929;DHT22;8581;47.334;11.190;2023-07-09T13:56:22;37.60;59.40
16929;DHT22;8581;47.334;11.190;2023-07-09T13:58:53;36.80;62.80
16929;DHT22;8581;47.334;11.190;2023-07-09T14:01:25;37.00;63.40
16929;DHT22;8581;47.334;11.190;2023-07-09T14:03:56;35.70;63.10
16929;DHT22;8581;47.334;11.190;2023-07-09T14:06:28;36.80;61.50
16929;DHT22;8581;47.334;11.190;2023-07-09T14:09:00;39.50;62.40
16929;DHT22;8581;47.334;11.190;2023-07-09T14:11:31;40.70;60.40
16929;DHT22;8581;47.334;11.190;2023-07-09T14:14:07;42.20;58.80
16929;DHT22;8581;47.334;11.190;2023-07-09T14:16:34;44.40;55.90
16929;DHT22;8581;47.334;11.190;2023-07-09T14:19:09;44.70;55.30
16929;DHT22;8581;47.334;11.190;2023-07-09T14:21:38;44.40;56.30
16929;DHT22;8581;47.334;11.190;2023-07-09T14:24:20;43.80;54.80
16929;DHT22;8581;47.334;11.190;2023-07-09T14:26:51;44.10;54.90
16929;DHT22;8581;47.334;11.190;2023-07-09T14:29:23;45.00;53.00
16929;DHT22;8581;47.334;11.190;2023-07-09T14:31:54;43.10;54.60
16929;DHT22;8581;47.334;11.190;2023-07-09T14:34:28;42.00;57.20
16929;DHT22;8581;47.334;11.190;2023-07-09T14:36:59;41.80;57.40
16929;DHT22;8581;47.334;11.190;2023-07-09T14:39:31;42.00;58.00
16929;DHT22;8581;47.334;11.190;2023-07-09T14:42:02;43.40;56.30
16929;DHT22;8581;47.334;11.190;2023-07-09T14:44:34;43.60;56.20
16929;DHT22;8581;47.334;11.190;2023-07-09T14:47:10;43.30;55.80
16929;DHT22;8581;47.334;11.190;2023-07-09T14:49:39;41.80;57.10
16929;DHT22;8581;47.334;11.190;2023-07-09T14:52:12;42.00;57.50
16929;DHT22;8581;47.334;11.190;2023-07-09T14:54:43;43.60;56.40
16929;DHT22;8581;47.334;11.190;2023-07-09T14:57:18;43.50;55.50
16929;DHT22;8581;47.334;11.190;2023-07-09T14:59:49;43.90;55.40
16929;DHT22;8581;47.334;11.190;2023-07-09T15:02:32;43.70;56.30
16929;DHT22;8581;47.334;11.190;2023-07-09T15:05:02;43.60;55.50
16929;DHT22;8581;47.334;11.190;2023-07-09T15:07:33;42.50;57.10
16929;DHT22;8581;47.334;11.190;2023-07-09T15:10:06;42.70;57.50
16929;DHT22;8581;47.334;11.190;2023-07-09T15:12:37;43.00;58.40
16929;DHT22;8581;47.334;11.190;2023-07-09T15:15:20;43.00;56.50
16929;DHT22;8581;47.334;11.190;2023-07-09T15:17:49;42.70;56.70
16929;DHT22;8581;47.334;11.190;2023-07-09T15:20:23;41.90;57.30
16929;DHT22;8581;47.334;11.190;2023-07-09T15:22:54;41.70;59.20
16929;DHT22;8581;47.334;11.190;2023-07-09T15:25:26;41.50;57.80
16929;DHT22;8581;47.334;11.190;2023-07-09T15:27:57;41.80;58.40
16929;DHT22;8581;47.334;11.190;2023-07-09T15:30:29;41.90;58.40
16929;DHT22;8581;47.334;11.190;2023-07-09T15:33:00;42.60;57.60
16929;DHT22;8581;47.334;11.190;2023-07-09T15:35:33;42.90;56.50
16929;DHT22;8581;47.334;11.190;2023-07-09T15:38:20;41.20;58.50
16929;DHT22;8581;47.334;11.190;2023-07-09T15:40:50;40.40;58.80
16929;DHT22;8581;47.334;11.190;2023-07-09T15:43:22;39.90;60.20
16929;DHT22;8581;47.334;11.190;2023-07-09T15:45:55;40.20;59.90
16929;DHT22;8581;47.334;11.190;2023-07-09T15:48:31;40.30;60.20
16929;DHT22;8581;47.334;11.190;2023-07-09T15:51:03;39.90;59.90
16929;DHT22;8581;47.334;11.190;2023-07-09T15:53:33;39.70;59.60
16929;DHT22;8581;47.334;11.190;2023-07-09T15:56:11;40.10;59.90
16929;DHT22;8581;47.334;11.190;2023-07-09T15:58:38;40.70;59.90
16929;DHT22;8581;47.334;11.190;2023-07-09T16:01:11;41.60;58.20
16929;DHT22;8581;47.334;11.190;2023-07-09T16:03:46;41.10;59.50
16929;DHT22;8581;47.334;11.190;2023-07-09T16:06:16;41.00;59.20
16929;DHT22;8581;47.334;11.190;2023-07-09T16:08:46;40.90;58.40
16929;DHT22;8581;47.334;11.190;2023-07-09T16:11:19;41.30;58.20